Time;durP1;ratioP1;P1;durP2;ratioP2;P2;SDS_P1;SDS_P2;PMS_P1;PMS_P2;Temp;Humidity;BMP_temperature;BMP_pressure;BME280_temperature;BME280_humidity;BME280_pressure;Samples;Min_cycle;Max_cycle;Signal;HPM_P1;HPM_P2
2023/03/08 00:00:24;;;;;;;3.90;3.30;;;;;;;;;;5015299;28;20046;-88
2023/03/08 00:02:52;;;;;;;7.50;3.55;;;;;;;;;;5015736;28;20494;-88
2023/03/08 00:05:20;;;;;;;3.67;3.38;;;;;;;;;;5016518;28;20469;-88
2023/03/08 00:07:47;;;;;;;3.22;3.03;;;;;;;;;;5016589;28;20057;-88
2023/03/08 00:10:14;;;;;;;3.80;3.50;;;;;;;;;;5016185;28;20410;-88
2023/03/08 00:12:41;;;;;;;4.50;4.07;;;;;;;;;;5015566;28;20405;-88
2023/03/08 00:15:08;;;;;;;4.88;3.95;;;;;;;;;;5016135;28;20057;-88
2023/03/08 00:17:36;;;;;;;4.68;3.95;;;;;;;;;;5015521;28;20046;-88
2023/03/08 00:20:05;;;;;;;4.88;4.38;;;;;;;;;;5015341;28;20053;-88
2023/03/08 00:22:39;;;;;;;5.25;4.38;;;;;;;;;;5015319;28;20060;-88
2023/03/08 00:25:07;;;;;;;4.72;4.32;;;;;;;;;;5016216;28;20409;-89
2023/03/08 00:27:35;;;;;;;5.35;4.82;;;;;;;;;;5015328;28;20092;-89
2023/03/08 00:30:04;;;;;;;4.93;4.45;;;;;;;;;;5015421;28;20050;-88
2023/03/08 00:32:32;;;;;;;4.53;4.10;;;;;;;;;;5015413;28;20080;-88
2023/03/08 00:34:59;;;;;;;5.00;4.50;;;;;;;;;;5014967;28;20505;-88
2023/03/08 00:37:26;;;;;;;5.07;4.60;;;;;;;;;;5014791;28;20061;-88
2023/03/08 00:39:54;;;;;;;5.15;4.65;;;;;;;;;;5015765;28;20050;-88
2023/03/08 00:42:21;;;;;;;5.30;4.75;;;;;;;;;;5015926;28;20049;-88
2023/03/08 00:44:49;;;;;;;5.97;5.25;;;;;;;;;;5014811;28;20057;-88
2023/03/08 00:47:16;;;;;;;5.38;4.88;;;;;;;;;;5014818;28;20053;-88
2023/03/08 00:49:43;;;;;;;5.45;4.95;;;;;;;;;;5013295;28;20144;-88
2023/03/08 00:52:11;;;;;;;5.40;4.78;;;;;;;;;;5015495;28;20079;-88
2023/03/08 00:54:38;;;;;;;5.78;5.18;;;;;;;;;;5014573;28;20061;-89
2023/03/08 00:57:05;;;;;;;6.00;4.95;;;;;;;;;;5014753;28;20054;-88
2023/03/08 00:59:32;;;;;;;5.47;4.93;;;;;;;;;;5014523;28;20054;-89
2023/03/08 01:02:00;;;;;;;5.40;4.90;;;;;;;;;;5014749;28;20220;-88
2023/03/08 01:04:27;;;;;;;6.82;5.20;;;;;;;;;;5014154;28;20071;-89
2023/03/08 01:06:55;;;;;;;6.00;5.40;;;;;;;;;;5015289;28;20200;-89
2023/03/08 01:09:22;;;;;;;6.57;5.65;;;;;;;;;;5015247;28;20054;-89
2023/03/08 01:11:49;;;;;;;7.60;5.97;;;;;;;;;;5014340;28;20052;-89
2023/03/08 01:14:16;;;;;;;6.70;5.90;;;;;;;;;;5014222;28;20506;-89
2023/03/08 01:16:44;;;;;;;7.65;6.30;;;;;;;;;;5013976;28;20136;-89
2023/03/08 01:19:11;;;;;;;6.28;5.68;;;;;;;;;;5014778;28;20478;-89
2023/03/08 01:21:38;;;;;;;6.20;5.13;;;;;;;;;;5014812;28;20054;-89
2023/03/08 01:24:06;;;;;;;5.90;5.05;;;;;;;;;;5013904;28;20049;-89
2023/03/08 01:26:33;;;;;;;5.32;4.75;;;;;;;;;;5014076;28;20053;-88
2023/03/08 01:29:00;;;;;;;5.78;4.68;;;;;;;;;;5013893;28;20053;-89
2023/03/08 01:31:29;;;;;;;6.10;5.13;;;;;;;;;;5014626;28;20145;-89
2023/03/08 01:33:56;;;;;;;5.15;4.65;;;;;;;;;;5013896;28;20045;-89
2023/03/08 01:36:25;;;;;;;6.10;5.10;;;;;;;;;;5014586;28;20050;-89
2023/03/08 01:38:52;;;;;;;6.35;5.40;;;;;;;;;;5014983;28;20052;-89
2023/03/08 01:41:24;;;;;;;7.18;4.97;;;;;;;;;;5014135;28;20442;-89
2023/03/08 01:43:52;;;;;;;6.78;5.53;;;;;;;;;;5013930;28;20096;-89
2023/03/08 01:46:33;;;;;;;5.75;5.05;;;;;;;;;;5013683;28;20141;-90
2023/03/08 01:49:19;;;;;;;4.85;4.38;;;;;;;;;;5013778;28;20050;-89
2023/03/08 01:52:01;;;;;;;5.38;4.57;;;;;;;;;;5013784;28;20050;-89
2023/03/08 01:54:37;;;;;;;6.70;5.07;;;;;;;;;;5017375;28;20104;-90
2023/03/08 01:57:06;;;;;;;6.13;4.93;;;;;;;;;;5013342;28;20478;-89
2023/03/08 01:59:34;;;;;;;5.57;4.93;;;;;;;;;;5014639;28;20050;-89
2023/03/08 02:02:01;;;;;;;6.82;4.85;;;;;;;;;;5013669;28;20462;-90
2023/03/08 02:04:29;;;;;;;5.65;4.60;;;;;;;;;;5014167;28;20053;-89
2023/03/08 02:06:56;;;;;;;6.00;5.07;;;;;;;;;;5014505;28;20046;-89
2023/03/08 02:09:23;;;;;;;4.70;4.20;;;;;;;;;;5013361;28;20093;-89
2023/03/08 02:11:51;;;;;;;5.93;5.32;;;;;;;;;;5013459;28;20056;-89
2023/03/08 02:14:19;;;;;;;5.90;4.80;;;;;;;;;;5013299;28;20140;-89
2023/03/08 02:16:46;;;;;;;6.15;5.07;;;;;;;;;;5013589;28;20061;-89
2023/03/08 02:19:20;;;;;;;5.53;4.15;;;;;;;;;;5013421;28;20406;-89
2023/03/08 02:21:47;;;;;;;6.03;5.18;;;;;;;;;;5013173;28;20062;-89
2023/03/08 02:24:21;;;;;;;6.07;4.75;;;;;;;;;;5014353;28;20128;-90
2023/03/08 02:26:50;;;;;;;6.70;5.13;;;;;;;;;;5014262;28;20072;-89
2023/03/08 02:29:18;;;;;;;7.00;5.10;;;;;;;;;;5013931;28;20145;-90
2023/03/08 02:31:46;;;;;;;6.18;4.97;;;;;;;;;;5013065;28;20128;-89
2023/03/08 02:34:15;;;;;;;6.63;5.10;;;;;;;;;;5013167;28;20482;-89
2023/03/08 02:36:42;;;;;;;6.40;5.35;;;;;;;;;;5013011;28;20453;-89
2023/03/08 02:39:10;;;;;;;6.38;5.15;;;;;;;;;;5013817;28;20500;-90
2023/03/08 02:41:37;;;;;;;6.18;5.38;;;;;;;;;;5013287;28;20052;-89
2023/03/08 02:44:04;;;;;;;8.32;5.93;;;;;;;;;;5013015;28;20601;-89
2023/03/08 02:46:31;;;;;;;5.70;4.90;;;;;;;;;;5012959;28;20052;-89
2023/03/08 02:48:58;;;;;;;5.85;5.25;;;;;;;;;;5012745;28;20050;-89
2023/03/08 02:51:26;;;;;;;6.53;5.00;;;;;;;;;;5012702;28;20391;-90
2023/03/08 02:53:53;;;;;;;9.82;5.63;;;;;;;;;;5013612;28;20056;-89
2023/03/08 02:56:21;;;;;;;5.00;4.40;;;;;;;;;;5016323;28;20050;-89
2023/03/08 02:58:48;;;;;;;5.10;3.92;;;;;;;;;;5017803;28;20056;-90
2023/03/08 03:01:15;;;;;;;5.93;4.78;;;;;;;;;;5016805;28;20050;-90
2023/03/08 03:03:42;;;;;;;6.43;4.78;;;;;;;;;;5016753;28;20085;-90
2023/03/08 03:06:17;;;;;;;9.10;4.78;;;;;;;;;;5016525;28;20057;-90
2023/03/08 03:08:44;;;;;;;6.70;4.50;;;;;;;;;;5016525;28;20140;-90
2023/03/08 03:11:16;;;;;;;7.32;4.97;;;;;;;;;;5016625;28;20072;-90
2023/03/08 03:13:43;;;;;;;6.15;4.30;;;;;;;;;;5016762;28;20046;-90
2023/03/08 03:16:11;;;;;;;4.20;3.80;;;;;;;;;;5016389;28;20181;-90
2023/03/08 03:18:39;;;;;;;5.88;4.13;;;;;;;;;;5016600;28;20053;-90
2023/03/08 03:21:07;;;;;;;5.35;4.40;;;;;;;;;;5016340;28;20200;-90
2023/03/08 03:23:35;;;;;;;6.32;4.32;;;;;;;;;;5016482;28;20479;-90
2023/03/08 03:26:09;;;;;;;6.70;4.70;;;;;;;;;;5016478;28;20387;-91
2023/03/08 03:28:37;;;;;;;5.22;3.90;;;;;;;;;;5016047;28;20052;-90
2023/03/08 03:31:12;;;;;;;5.78;4.38;;;;;;;;;;5016230;28;20042;-90
2023/03/08 03:33:39;;;;;;;8.13;4.65;;;;;;;;;;5017182;28;20406;-91
2023/03/08 03:36:08;;;;;;;6.00;4.55;;;;;;;;;;5016231;28;20045;-91
2023/03/08 03:38:35;;;;;;;6.20;4.75;;;;;;;;;;5016189;28;20046;-91
2023/03/08 03:41:04;;;;;;;6.10;4.43;;;;;;;;;;5017222;28;20057;-91
2023/03/08 03:43:31;;;;;;;6.25;4.85;;;;;;;;;;5017388;28;20057;-90
2023/03/08 03:45:59;;;;;;;6.88;4.45;;;;;;;;;;5016932;28;20050;-91
2023/03/08 03:48:26;;;;;;;7.05;5.05;;;;;;;;;;5017230;28;20053;-91
2023/03/08 03:50:55;;;;;;;8.88;5.40;;;;;;;;;;5016872;28;20049;-90
2023/03/08 03:53:22;;;;;;;7.03;5.38;;;;;;;;;;5015675;28;20046;-91
2023/03/08 03:55:50;;;;;;;6.65;5.05;;;;;;;;;;5016575;28;20502;-91
2023/03/08 03:58:17;;;;;;;8.60;5.18;;;;;;;;;;5015801;28;20133;-91
2023/03/08 04:00:44;;;;;;;6.80;5.20;;;;;;;;;;5016755;28;20053;-90
2023/03/08 04:03:12;;;;;;;7.55;5.00;;;;;;;;;;5016645;28;20050;-91
2023/03/08 04:05:39;;;;;;;7.97;5.65;;;;;;;;;;5014953;28;20046;-91
2023/03/08 04:08:07;;;;;;;6.38;4.75;;;;;;;;;;5015037;28;20410;-91
2023/03/08 04:10:35;;;;;;;7.25;5.05;;;;;;;;;;5014594;28;20104;-91
2023/03/08 04:13:02;;;;;;;8.93;5.10;;;;;;;;;;5015495;28;20050;-91
2023/03/08 04:15:29;;;;;;;9.45;5.30;;;;;;;;;;5015333;28;20050;-92
2023/03/08 04:17:56;;;;;;;7.25;5.22;;;;;;;;;;5015442;28;20053;-91
2023/03/08 04:20:24;;;;;;;7.70;5.45;;;;;;;;;;5015102;28;20053;-92
2023/03/08 04:22:51;;;;;;;7.20;5.03;;;;;;;;;;5015480;28;20054;-91
2023/03/08 04:25:19;;;;;;;7.15;4.80;;;;;;;;;;5014197;28;20069;-92
2023/03/08 04:27:46;;;;;;;8.73;5.35;;;;;;;;;;5015368;28;20056;-91
2023/03/08 04:30:13;;;;;;;9.02;5.88;;;;;;;;;;5015420;28;20050;-92
2023/03/08 04:32:40;;;;;;;10.73;6.63;;;;;;;;;;5015192;28;20089;-91
2023/03/08 04:35:08;;;;;;;15.68;9.80;;;;;;;;;;5015244;28;20050;-91
2023/03/08 04:37:36;;;;;;;9.77;6.35;;;;;;;;;;5015015;28;20046;-91
2023/03/08 04:40:06;;;;;;;10.23;6.40;;;;;;;;;;5016415;28;20060;-91
2023/03/08 04:42:35;;;;;;;10.45;6.00;;;;;;;;;;5016006;28;20052;-91
2023/03/08 04:45:02;;;;;;;10.80;7.05;;;;;;;;;;5015785;28;20054;-91
2023/03/08 04:47:29;;;;;;;13.52;6.97;;;;;;;;;;5016246;28;20478;-91
2023/03/08 04:49:56;;;;;;;10.55;6.75;;;;;;;;;;5015661;28;20065;-91
2023/03/08 04:52:24;;;;;;;13.10;7.43;;;;;;;;;;5015524;28;20065;-91
2023/03/08 04:54:51;;;;;;;20.02;8.48;;;;;;;;;;5015638;28;20409;-91
2023/03/08 04:57:18;;;;;;;12.52;7.30;;;;;;;;;;5014597;28;20058;-91
2023/03/08 04:59:46;;;;;;;19.20;8.90;;;;;;;;;;5016143;28;20136;-91
2023/03/08 05:02:14;;;;;;;18.52;7.00;;;;;;;;;;5015667;28;20046;-91
2023/03/08 05:04:41;;;;;;;14.70;6.65;;;;;;;;;;5014316;28;20104;-91
2023/03/08 05:07:08;;;;;;;9.93;6.70;;;;;;;;;;5014851;28;20054;-91
2023/03/08 05:09:35;;;;;;;13.38;6.88;;;;;;;;;;5014288;28;20057;-92
2023/03/08 05:12:03;;;;;;;11.45;5.63;;;;;;;;;;5015705;28;20046;-92
2023/03/08 05:14:30;;;;;;;9.80;5.80;;;;;;;;;;5014216;28;20042;-92
2023/03/08 05:16:58;;;;;;;13.30;6.20;;;;;;;;;;5013891;28;20417;-91
2023/03/08 05:19:28;;;;;;;14.35;6.18;;;;;;;;;;5014755;28;20054;-92
2023/03/08 05:21:55;;;;;;;10.93;5.95;;;;;;;;;;5014798;28;20077;-91
2023/03/08 05:24:23;;;;;;;12.65;6.70;;;;;;;;;;5014881;28;20052;-92
2023/03/08 05:26:50;;;;;;;10.27;6.18;;;;;;;;;;5014566;28;20125;-92
2023/03/08 05:29:18;;;;;;;13.25;6.40;;;;;;;;;;5014218;28;20129;-92
2023/03/08 05:31:45;;;;;;;12.20;6.43;;;;;;;;;;5014610;28;20060;-92
2023/03/08 05:34:12;;;;;;;14.93;6.95;;;;;;;;;;5014213;28;20049;-92
2023/03/08 05:36:41;;;;;;;10.27;6.10;;;;;;;;;;5014415;28;20045;-92
2023/03/08 05:39:10;;;;;;;12.95;6.07;;;;;;;;;;5014269;28;20050;-93
2023/03/08 05:41:37;;;;;;;18.15;7.53;;;;;;;;;;5014296;28;20136;-93
2023/03/08 05:44:05;;;;;;;14.77;7.07;;;;;;;;;;5014396;28;20053;-92
2023/03/08 05:46:33;;;;;;;16.27;7.20;;;;;;;;;;5014148;28;20500;-93
2023/03/08 05:49:00;;;;;;;14.70;6.80;;;;;;;;;;5014599;28;20046;-93
2023/03/08 05:51:27;;;;;;;11.68;6.25;;;;;;;;;;5014323;28;20080;-93
2023/03/08 05:53:55;;;;;;;13.40;6.68;;;;;;;;;;5014151;28;20076;-92
2023/03/08 05:56:23;;;;;;;11.98;6.88;;;;;;;;;;5014488;28;20143;-93
2023/03/08 05:58:51;;;;;;;9.50;5.65;;;;;;;;;;5013835;28;20153;-93
2023/03/08 06:01:19;;;;;;;11.77;6.65;;;;;;;;;;5014360;28;20486;-92
2023/03/08 06:03:48;;;;;;;12.93;6.35;;;;;;;;;;5014858;28;20042;-92
2023/03/08 06:06:16;;;;;;;12.10;6.38;;;;;;;;;;5013863;28;20149;-93
2023/03/08 06:08:43;;;;;;;10.00;5.97;;;;;;;;;;5014344;28;20058;-93
2023/03/08 06:11:13;;;;;;;10.07;6.60;;;;;;;;;;5014724;28;20049;-93
2023/03/08 06:13:41;;;;;;;11.18;6.72;;;;;;;;;;5014059;28;20141;-93
2023/03/08 06:16:08;;;;;;;12.90;6.97;;;;;;;;;;5015045;28;20136;-94
2023/03/08 06:18:37;;;;;;;14.07;5.93;;;;;;;;;;5015538;28;20557;-93
2023/03/08 06:21:10;;;;;;;20.77;9.93;;;;;;;;;;5015009;28;20590;-93
2023/03/08 06:23:38;;;;;;;19.52;9.05;;;;;;;;;;5013515;28;20053;-93
2023/03/08 06:26:07;;;;;;;15.43;7.40;;;;;;;;;;5013652;28;20132;-93
2023/03/08 06:28:34;;;;;;;13.57;7.95;;;;;;;;;;5014062;28;20046;-93
2023/03/08 06:31:02;;;;;;;14.40;7.85;;;;;;;;;;5013628;28;20052;-93
2023/03/08 06:33:31;;;;;;;13.57;6.78;;;;;;;;;;5012780;28;20142;-93
2023/03/08 06:35:59;;;;;;;30.92;17.77;;;;;;;;;;5015265;28;20073;-93
2023/03/08 06:38:29;;;;;;;39.00;22.35;;;;;;;;;;5016830;28;20061;-93
2023/03/08 06:40:59;;;;;;;22.27;12.63;;;;;;;;;;5016744;28;20608;-93
2023/03/08 06:43:27;;;;;;;21.75;12.90;;;;;;;;;;5018473;28;20077;-93
2023/03/08 06:45:56;;;;;;;44.42;26.25;;;;;;;;;;5019395;28;20052;-93
2023/03/08 06:48:25;;;;;;;26.13;16.13;;;;;;;;;;5018052;28;20568;-93
2023/03/08 06:50:53;;;;;;;22.00;12.68;;;;;;;;;;5016194;28;20064;-92
2023/03/08 06:53:20;;;;;;;40.28;24.58;;;;;;;;;;5015003;28;20508;-93
2023/03/08 06:55:48;;;;;;;46.58;25.88;;;;;;;;;;5016598;28;20074;-92
2023/03/08 06:58:15;;;;;;;34.65;21.17;;;;;;;;;;5018693;28;20494;-93
2023/03/08 07:00:43;;;;;;;25.30;13.88;;;;;;;;;;5017517;28;20175;-93
2023/03/08 07:03:13;;;;;;;14.95;9.68;;;;;;;;;;5015679;28;20085;-93
2023/03/08 07:05:41;;;;;;;24.40;11.55;;;;;;;;;;5014727;28;20466;-92
2023/03/08 07:08:09;;;;;;;15.60;9.43;;;;;;;;;;5013060;28;20597;-92
2023/03/08 07:10:36;;;;;;;15.35;8.38;;;;;;;;;;5013061;28;20050;-92
2023/03/08 07:13:03;;;;;;;15.77;8.80;;;;;;;;;;5013245;28;20137;-92
2023/03/08 07:15:31;;;;;;;12.20;8.60;;;;;;;;;;5013080;28;20128;-92
2023/03/08 07:17:59;;;;;;;13.35;8.60;;;;;;;;;;5012906;28;20054;-92
2023/03/08 07:20:27;;;;;;;11.85;8.45;;;;;;;;;;5013383;28;20128;-91
2023/03/08 07:22:54;;;;;;;13.95;9.25;;;;;;;;;;5012885;28;20052;-91
2023/03/08 07:25:21;;;;;;;12.30;9.07;;;;;;;;;;5012534;28;20100;-92
2023/03/08 07:27:49;;;;;;;12.00;8.43;;;;;;;;;;5012862;28;20277;-91
2023/03/08 07:30:16;;;;;;;13.52;8.88;;;;;;;;;;5012831;28;20141;-91
2023/03/08 07:32:44;;;;;;;9.07;7.50;;;;;;;;;;5012378;28;20052;-91
2023/03/08 07:35:13;;;;;;;9.68;7.40;;;;;;;;;;5012545;28;20081;-91
2023/03/08 07:37:43;;;;;;;12.65;8.25;;;;;;;;;;5012439;28;20081;-90
2023/03/08 07:40:11;;;;;;;9.82;7.13;;;;;;;;;;5012984;28;20053;-90
2023/03/08 07:42:39;;;;;;;11.25;7.35;;;;;;;;;;5016311;28;20058;-88
2023/03/08 07:45:06;;;;;;;12.50;7.60;;;;;;;;;;5015852;28;20555;-89
2023/03/08 07:47:33;;;;;;;12.88;8.88;;;;;;;;;;5016290;28;20064;-89
2023/03/08 07:50:01;;;;;;;15.45;9.57;;;;;;;;;;5015810;28;20500;-89
2023/03/08 07:52:29;;;;;;;12.45;8.85;;;;;;;;;;5015594;28;20053;-89
2023/03/08 07:54:56;;;;;;;11.98;8.57;;;;;;;;;;5016613;28;20490;-89
2023/03/08 07:57:24;;;;;;;15.38;10.30;;;;;;;;;;5016533;28;20050;-89
2023/03/08 07:59:51;;;;;;;13.00;9.32;;;;;;;;;;5016813;28;20133;-88
2023/03/08 08:02:20;;;;;;;11.32;8.32;;;;;;;;;;5016642;28;20061;-88
2023/03/08 08:04:47;;;;;;;31.83;17.50;;;;;;;;;;5015786;28;20042;-88
2023/03/08 08:07:15;;;;;;;84.25;38.67;;;;;;;;;;5016521;28;20053;-88
2023/03/08 08:09:42;;;;;;;36.67;19.60;;;;;;;;;;5016111;28;20054;-88
2023/03/08 08:12:10;;;;;;;36.75;21.67;;;;;;;;;;5014601;28;20054;-88
2023/03/08 08:14:37;;;;;;;23.08;13.57;;;;;;;;;;5015265;28;20046;-88
2023/03/08 08:17:04;;;;;;;83.45;43.35;;;;;;;;;;5015264;28;20053;-88
2023/03/08 08:19:31;;;;;;;41.63;24.15;;;;;;;;;;5012517;28;20053;-88
2023/03/08 08:21:59;;;;;;;61.72;36.90;;;;;;;;;;5013661;28;20141;-89
2023/03/08 08:24:27;;;;;;;36.58;23.42;;;;;;;;;;5013592;28;20050;-88
2023/03/08 08:26:54;;;;;;;41.83;23.63;;;;;;;;;;5014920;28;20104;-89
2023/03/08 08:29:21;;;;;;;48.05;27.73;;;;;;;;;;5013483;28;20574;-88
2023/03/08 08:31:51;;;;;;;19.50;13.13;;;;;;;;;;5013056;28;20529;-89
2023/03/08 08:34:19;;;;;;;20.70;12.18;;;;;;;;;;5014376;28;20046;-88
2023/03/08 08:36:46;;;;;;;22.88;14.98;;;;;;;;;;5015812;28;20041;-88
2023/03/08 08:39:14;;;;;;;17.63;12.50;;;;;;;;;;5016034;28;20082;-88
2023/03/08 08:41:41;;;;;;;17.10;11.68;;;;;;;;;;5014867;28;20133;-88
2023/03/08 08:44:08;;;;;;;18.70;13.25;;;;;;;;;;5015629;28;20050;-88
2023/03/08 08:46:36;;;;;;;18.48;13.80;;;;;;;;;;5015643;28;20052;-88
2023/03/08 08:49:07;;;;;;;19.90;12.48;;;;;;;;;;5014411;28;20089;-88
2023/03/08 08:51:34;;;;;;;17.35;12.40;;;;;;;;;;5014602;28;20068;-87
2023/03/08 08:54:01;;;;;;;17.08;12.65;;;;;;;;;;5013911;28;20100;-88
2023/03/08 08:56:29;;;;;;;21.20;13.57;;;;;;;;;;5014590;28;20081;-87
2023/03/08 08:58:56;;;;;;;20.30;14.27;;;;;;;;;;5014594;28;20104;-88
2023/03/08 09:01:25;;;;;;;20.30;14.15;;;;;;;;;;5013915;28;20050;-88
2023/03/08 09:03:52;;;;;;;19.13;12.65;;;;;;;;;;5014180;28;20052;-88
2023/03/08 09:06:20;;;;;;;21.35;14.10;;;;;;;;;;5014039;28;20056;-88
2023/03/08 09:08:51;;;;;;;15.40;11.18;;;;;;;;;;5014846;28;20080;-87
2023/03/08 09:11:18;;;;;;;15.02;11.77;;;;;;;;;;5015092;28;20482;-88
2023/03/08 09:13:45;;;;;;;14.05;11.23;;;;;;;;;;5015230;28;20108;-87
2023/03/08 09:16:17;;;;;;;17.27;12.23;;;;;;;;;;5013931;28;20558;-88
2023/03/08 09:18:44;;;;;;;10.85;8.23;;;;;;;;;;5015110;28;20054;-88
2023/03/08 09:21:11;;;;;;;13.70;9.40;;;;;;;;;;5014875;28;20046;-88
2023/03/08 09:23:39;;;;;;;10.23;7.55;;;;;;;;;;5013324;28;20045;-88
2023/03/08 09:26:06;;;;;;;9.20;7.28;;;;;;;;;;5014667;28;20455;-87
2023/03/08 09:28:33;;;;;;;8.23;7.20;;;;;;;;;;5014962;28;20050;-88
2023/03/08 09:31:08;;;;;;;8.90;7.53;;;;;;;;;;5014027;28;20501;-87
2023/03/08 09:33:35;;;;;;;8.05;6.50;;;;;;;;;;5013945;28;20056;-88
2023/03/08 09:36:03;;;;;;;7.72;6.45;;;;;;;;;;5014705;28;20080;-88
2023/03/08 09:38:30;;;;;;;11.55;7.18;;;;;;;;;;5013870;28;20504;-87
2023/03/08 09:41:04;;;;;;;7.10;6.07;;;;;;;;;;5013799;28;20406;-87
2023/03/08 09:43:40;;;;;;;7.70;5.75;;;;;;;;;;5013686;28;20116;-87
2023/03/08 09:46:09;;;;;;;6.30;5.70;;;;;;;;;;5014627;28;20498;-87
2023/03/08 09:48:36;;;;;;;5.93;5.18;;;;;;;;;;5014760;28;20054;-87
2023/03/08 09:51:09;;;;;;;6.30;5.63;;;;;;;;;;5013571;28;20057;-88
2023/03/08 09:53:50;;;;;;;5.65;5.10;;;;;;;;;;5013261;28;20057;-87
2023/03/08 09:56:38;;;;;;;6.47;5.28;;;;;;;;;;5013470;28;20324;-88
2023/03/08 09:59:07;;;;;;;6.40;5.43;;;;;;;;;;5013579;28;20050;-87
2023/03/08 10:01:42;;;;;;;5.72;5.22;;;;;;;;;;5012783;28;20053;-88
2023/03/08 10:04:15;;;;;;;5.60;5.00;;;;;;;;;;5013093;28;20050;-88
2023/03/08 10:06:50;;;;;;;5.82;5.18;;;;;;;;;;5016962;28;20387;-88
2023/03/08 10:09:20;;;;;;;5.45;4.95;;;;;;;;;;5012643;28;20061;-87
2023/03/08 10:11:53;;;;;;;6.57;5.10;;;;;;;;;;5013138;28;20049;-88
2023/03/08 10:14:35;;;;;;;5.50;5.00;;;;;;;;;;5014143;28;20494;-87
2023/03/08 10:17:04;;;;;;;5.65;5.07;;;;;;;;;;5015311;28;20042;-88
2023/03/08 10:19:38;;;;;;;5.60;4.97;;;;;;;;;;5015341;28;20530;-88
2023/03/08 10:22:08;;;;;;;6.13;5.38;;;;;;;;;;5014423;28;20144;-88
2023/03/08 10:24:40;;;;;;;6.32;5.00;;;;;;;;;;5015435;28;20045;-88
2023/03/08 10:27:20;;;;;;;5.97;5.35;;;;;;;;;;5014367;28;20052;-88
2023/03/08 10:38:31;;;;;;;6.07;5.35;;;;;;;;;;5052220;28;20577;-77
2023/03/08 10:40:59;;;;;;;6.43;5.82;;;;;;;;;;5057330;28;20466;-77
2023/03/08 10:43:32;;;;;;;6.22;5.38;;;;;;;;;;5055068;28;20045;-79
2023/03/08 10:46:04;;;;;;;6.95;6.00;;;;;;;;;;5056561;28;20047;-78
2023/03/08 10:48:31;;;;;;;7.78;6.07;;;;;;;;;;5055553;28;20049;-78
2023/03/08 10:51:02;;;;;;;6.10;5.50;;;;;;;;;;5055532;28;20095;-78
2023/03/08 10:53:30;;;;;;;5.35;4.85;;;;;;;;;;5053374;28;20132;-78
2023/03/08 10:55:59;;;;;;;5.70;5.07;;;;;;;;;;5053301;28;20465;-78
2023/03/08 10:58:34;;;;;;;5.53;5.07;;;;;;;;;;5052044;28;20052;-77
2023/03/08 11:01:03;;;;;;;5.35;4.90;;;;;;;;;;5051824;28;20049;-77
2023/03/08 11:03:30;;;;;;;5.72;5.07;;;;;;;;;;5052992;28;20140;-78
2023/03/08 11:05:59;;;;;;;6.10;5.50;;;;;;;;;;5051748;28;20049;-77
2023/03/08 11:08:37;;;;;;;6.93;6.22;;;;;;;;;;5052288;28;20055;-78
2023/03/08 11:11:10;;;;;;;6.78;5.70;;;;;;;;;;5053549;28;20514;-79
2023/03/08 11:13:40;;;;;;;6.37;5.60;;;;;;;;;;5053021;28;20044;-79
2023/03/08 11:16:18;;;;;;;6.22;5.63;;;;;;;;;;5055546;28;20341;-79
2023/03/08 11:18:50;;;;;;;8.05;6.45;;;;;;;;;;5058168;28;20041;-78
2023/03/08 11:21:36;;;;;;;6.25;5.63;;;;;;;;;;5056361;28;20057;-79
2023/03/08 11:24:11;;;;;;;6.75;5.00;;;;;;;;;;5056162;28;20045;-78
2023/03/08 11:26:53;;;;;;;5.68;5.10;;;;;;;;;;5058563;28;20486;-78
2023/03/08 11:29:39;;;;;;;5.18;4.78;;;;;;;;;;5057370;28;20077;-78
2023/03/08 11:32:28;;;;;;;6.30;5.20;;;;;;;;;;5055821;28;20059;-79
2023/03/08 11:34:55;;;;;;;5.00;4.60;;;;;;;;;;5055984;28;20045;-78
2023/03/08 11:37:22;;;;;;;4.43;4.10;;;;;;;;;;5057113;28;20434;-78
2023/03/08 11:39:54;;;;;;;3.92;3.63;;;;;;;;;;5055491;28;20049;-79
2023/03/08 11:42:21;;;;;;;4.85;4.40;;;;;;;;;;5055038;28;20040;-78
2023/03/08 11:45:00;;;;;;;4.30;4.00;;;;;;;;;;5056642;28;20052;-78
2023/03/08 11:47:47;;;;;;;7.13;4.65;;;;;;;;;;5055414;28;20060;-79
2023/03/08 11:50:18;;;;;;;4.60;4.20;;;;;;;;;;5056156;28;20139;-78
2023/03/08 11:53:04;;;;;;;5.07;4.60;;;;;;;;;;5055992;28;20143;-79
2023/03/08 11:55:50;;;;;;;4.72;4.32;;;;;;;;;;5056031;28;20087;-78
2023/03/08 11:58:29;;;;;;;4.97;4.47;;;;;;;;;;5054629;28;20151;-79
2023/03/08 12:01:00;;;;;;;4.38;3.97;;;;;;;;;;5055773;28;20041;-79
2023/03/08 12:03:36;;;;;;;4.50;4.10;;;;;;;;;;5055721;28;20045;-79
2023/03/08 12:06:10;;;;;;;5.97;4.22;;;;;;;;;;5054157;28;20049;-79
2023/03/08 12:08:58;;;;;;;4.70;4.30;;;;;;;;;;5055766;28;20469;-79
2023/03/08 12:11:31;;;;;;;5.32;4.68;;;;;;;;;;5055658;28;20045;-79
2023/03/08 12:14:15;;;;;;;5.05;4.22;;;;;;;;;;5055411;28;20088;-80
2023/03/08 12:16:47;;;;;;;5.03;4.40;;;;;;;;;;5055619;28;20067;-79
2023/03/08 12:19:19;;;;;;;5.75;5.13;;;;;;;;;;5055311;28;20649;-80
2023/03/08 12:22:00;;;;;;;5.82;5.20;;;;;;;;;;5055279;28;20135;-80
2023/03/08 12:24:30;;;;;;;5.28;4.78;;;;;;;;;;5054076;28;20082;-79
2023/03/08 12:27:05;;;;;;;5.55;5.00;;;;;;;;;;5053033;28;20048;-78
2023/03/08 12:29:39;;;;;;;5.57;5.07;;;;;;;;;;5055204;28;20136;-78
2023/03/08 12:32:07;;;;;;;5.55;4.70;;;;;;;;;;5053769;28;20136;-79
2023/03/08 12:34:43;;;;;;;4.55;4.15;;;;;;;;;;5053549;28;20053;-77
2023/03/08 12:37:38;;;;;;;4.28;3.88;;;;;;;;;;5053895;28;20082;-78
2023/03/08 12:40:25;;;;;;;4.05;3.72;;;;;;;;;;5054122;28;20055;-79
2023/03/08 12:43:03;;;;;;;4.20;3.88;;;;;;;;;;5053418;28;20045;-79
2023/03/08 12:45:30;;;;;;;4.60;4.20;;;;;;;;;;5055515;28;20414;-79
2023/03/08 12:48:07;;;;;;;3.90;3.60;;;;;;;;;;5055913;28;20498;-79
2023/03/08 12:50:45;;;;;;;3.92;3.63;;;;;;;;;;5057186;28;20139;-79
2023/03/08 12:53:31;;;;;;;3.30;3.10;;;;;;;;;;5055438;28;20103;-79
2023/03/08 12:56:04;;;;;;;4.10;3.70;;;;;;;;;;5055146;28;20487;-79
2023/03/08 12:58:32;;;;;;;3.47;3.17;;;;;;;;;;5056154;28;20064;-79
2023/03/08 13:01:19;;;;;;;3.05;2.85;;;;;;;;;;5055871;28;20048;-79
2023/03/08 13:03:46;;;;;;;3.25;2.95;;;;;;;;;;5053473;28;20099;-79
2023/03/08 13:06:14;;;;;;;3.40;3.10;;;;;;;;;;5054407;28;20128;-79
2023/03/08 13:08:48;;;;;;;3.30;3.10;;;;;;;;;;5055698;28;20049;-79
2023/03/08 13:11:15;;;;;;;3.25;3.05;;;;;;;;;;5055476;28;20129;-79
2023/03/08 13:13:56;;;;;;;2.85;2.65;;;;;;;;;;5055141;28;20088;-79
2023/03/08 13:16:34;;;;;;;3.08;2.88;;;;;;;;;;5053957;28;20052;-79
2023/03/08 13:19:13;;;;;;;3.47;3.28;;;;;;;;;;5054542;28;20045;-77
2023/03/08 13:21:47;;;;;;;3.65;3.35;;;;;;;;;;5055133;28;20452;-79
2023/03/08 13:24:30;;;;;;;3.92;3.40;;;;;;;;;;5052917;28;20055;-79
2023/03/08 13:27:16;;;;;;;2.55;2.45;;;;;;;;;;5054521;28;20053;-79
2023/03/08 13:29:44;;;;;;;3.13;2.92;;;;;;;;;;5053418;28;20415;-78
2023/03/08 13:32:13;;;;;;;2.53;2.42;;;;;;;;;;5055648;28;20415;-79
2023/03/08 13:34:40;;;;;;;2.63;2.53;;;;;;;;;;5053633;28;20514;-77
2023/03/08 13:37:28;;;;;;;2.33;2.15;;;;;;;;;;5052581;28;20053;-79
2023/03/08 13:39:56;;;;;;;1.98;1.88;;;;;;;;;;5052821;28;20438;-79
2023/03/08 13:42:25;;;;;;;2.25;2.15;;;;;;;;;;5052563;28;20045;-77
2023/03/08 13:44:54;;;;;;;2.40;2.20;;;;;;;;;;5052098;28;20067;-78
2023/03/08 13:47:26;;;;;;;2.50;1.80;;;;;;;;;;5052535;28;20060;-77
2023/03/08 13:49:54;;;;;;;2.20;2.10;;;;;;;;;;5052667;28;20049;-78
2023/03/08 13:52:28;;;;;;;1.65;1.65;;;;;;;;;;5053496;28;20148;-78
2023/03/08 13:54:57;;;;;;;1.75;1.73;;;;;;;;;;5052960;28;20550;-79
2023/03/08 13:57:32;;;;;;;2.05;1.95;;;;;;;;;;5055366;28;20045;-79
2023/03/08 14:00:00;;;;;;;2.10;2.00;;;;;;;;;;5053420;28;20045;-78
2023/03/08 14:02:29;;;;;;;1.90;1.80;;;;;;;;;;5053902;28;20048;-78
2023/03/08 14:04:57;;;;;;;2.05;1.95;;;;;;;;;;5053906;28;20418;-78
2023/03/08 14:07:26;;;;;;;2.47;2.30;;;;;;;;;;5052475;28;20053;-78
2023/03/08 14:10:00;;;;;;;2.20;2.10;;;;;;;;;;5052102;28;20049;-78
2023/03/08 14:12:29;;;;;;;2.33;2.22;;;;;;;;;;5052009;28;20084;-80
2023/03/08 14:14:59;;;;;;;2.83;2.63;;;;;;;;;;5053197;28;20118;-79
2023/03/08 14:17:28;;;;;;;4.90;2.78;;;;;;;;;;5052192;28;20084;-79
2023/03/08 14:19:59;;;;;;;2.72;2.60;;;;;;;;;;5053990;28;20041;-80
2023/03/08 14:22:28;;;;;;;3.35;2.58;;;;;;;;;;5054327;28;20049;-80
2023/03/08 14:25:06;;;;;;;2.90;2.70;;;;;;;;;;5054271;28;20127;-80
2023/03/08 14:27:38;;;;;;;3.47;3.28;;;;;;;;;;5054266;28;20045;-80
2023/03/08 14:30:13;;;;;;;2.53;2.42;;;;;;;;;;5053767;28;20091;-80
2023/03/08 14:32:41;;;;;;;3.10;2.90;;;;;;;;;;5075425;22;20147;-85
2023/03/08 14:35:19;;;;;;;2.88;2.67;;;;;;;;;;5092003;28;20048;-85
2023/03/08 14:37:47;;;;;;;3.08;2.88;;;;;;;;;;5092220;28;20050;-86
2023/03/08 14:40:23;;;;;;;3.13;2.92;;;;;;;;;;5093255;28;20455;-86
2023/03/08 14:42:54;;;;;;;3.50;3.30;;;;;;;;;;5093235;28;20109;-85
2023/03/08 14:45:26;;;;;;;3.53;3.22;;;;;;;;;;5091728;28;20063;-85
2023/03/08 14:47:56;;;;;;;3.38;3.17;;;;;;;;;;5092058;28;20458;-85
2023/03/08 14:50:25;;;;;;;3.25;2.97;;;;;;;;;;5091204;28;20514;-86
2023/03/08 14:52:55;;;;;;;3.60;3.30;;;;;;;;;;5091729;28;20139;-85
2023/03/08 14:55:22;;;;;;;4.93;3.30;;;;;;;;;;5092767;28;20458;-85
2023/03/08 14:57:50;;;;;;;3.13;2.92;;;;;;;;;;5092105;28;20044;-85
2023/03/08 15:00:18;;;;;;;3.45;3.10;;;;;;;;;;5092015;28;20046;-85
2023/03/08 15:02:45;;;;;;;3.40;3.10;;;;;;;;;;5093039;28;20061;-85